Time;durP1;ratioP1;P1;durP2;ratioP2;P2;SDS_P1;SDS_P2;PMS_P1;PMS_P2;Temp;Humidity;BMP_temperature;BMP_pressure;BME280_temperature;BME280_humidity;BME280_pressure;Samples;Min_cycle;Max_cycle;Signal;HPM_P1;HPM_P2
2021/05/04 00:02:04;;;;;;;2.40;1.83;;;;;;;;;;5053519;28;20039;-78
2021/05/04 00:04:30;;;;;;;1.45;1.08;;;;;;;;;;5052729;28;20033;-79
2021/05/04 00:06:56;;;;;;;0.95;0.95;;;;;;;;;;5052980;28;20475;-78
2021/05/04 00:09:23;;;;;;;0.73;0.73;;;;;;;;;;5052492;28;20076;-78
2021/05/04 00:11:49;;;;;;;1.38;1.27;;;;;;;;;;5053066;28;20060;-78
2021/05/04 00:14:15;;;;;;;1.10;1.00;;;;;;;;;;5052613;28;20025;-78
2021/05/04 00:16:41;;;;;;;0.88;0.88;;;;;;;;;;5053195;28;20039;-78
2021/05/04 00:19:07;;;;;;;1.55;1.30;;;;;;;;;;5052560;28;20025;-78
2021/05/04 00:21:33;;;;;;;2.58;1.83;;;;;;;;;;5052399;28;20633;-79
2021/05/04 00:23:59;;;;;;;0.98;0.95;;;;;;;;;;5052981;28;20044;-78
2021/05/04 00:26:25;;;;;;;1.45;1.35;;;;;;;;;;5052289;28;20032;-79
2021/05/04 00:28:52;;;;;;;2.60;1.38;;;;;;;;;;5052498;28;20032;-78
2021/05/04 00:31:18;;;;;;;1.00;1.00;;;;;;;;;;5052298;28;20095;-78
2021/05/04 00:33:44;;;;;;;1.20;1.10;;;;;;;;;;5052684;28;20021;-78
2021/05/04 00:36:10;;;;;;;2.17;0.90;;;;;;;;;;5051064;28;20387;-78
2021/05/04 00:38:36;;;;;;;1.02;0.90;;;;;;;;;;5052809;28;20582;-78
2021/05/04 00:41:02;;;;;;;0.98;0.65;;;;;;;;;;5052250;28;20079;-78
2021/05/04 00:43:29;;;;;;;1.17;1.08;;;;;;;;;;5051830;28;20032;-78
2021/05/04 00:45:56;;;;;;;1.08;1.08;;;;;;;;;;5052477;28;20020;-78
2021/05/04 00:48:23;;;;;;;1.48;1.35;;;;;;;;;;5052085;28;20029;-78
2021/05/04 00:50:49;;;;;;;1.40;1.30;;;;;;;;;;5052213;28;20033;-78
2021/05/04 00:53:15;;;;;;;1.02;0.93;;;;;;;;;;5052093;28;20451;-78
2021/05/04 00:55:42;;;;;;;1.05;0.68;;;;;;;;;;5052263;28;20094;-78
2021/05/04 00:58:09;;;;;;;1.17;0.73;;;;;;;;;;5033959;28;20395;-78
2021/05/04 01:00:35;;;;;;;0.82;0.82;;;;;;;;;;5051969;28;20033;-78
2021/05/04 01:03:02;;;;;;;0.90;0.90;;;;;;;;;;5052027;28;20032;-79
2021/05/04 01:05:29;;;;;;;1.65;0.93;;;;;;;;;;5051761;28;20025;-78
2021/05/04 01:07:55;;;;;;;0.70;0.70;;;;;;;;;;5051905;28;20083;-79
2021/05/04 01:10:21;;;;;;;1.25;1.15;;;;;;;;;;5051316;28;20376;-78
2021/05/04 01:12:48;;;;;;;0.60;0.60;;;;;;;;;;5051882;28;20463;-79
2021/05/04 01:15:14;;;;;;;1.15;0.90;;;;;;;;;;5051638;28;20041;-78
2021/05/04 01:17:40;;;;;;;1.05;0.95;;;;;;;;;;5052080;28;20029;-78
2021/05/04 01:20:06;;;;;;;1.10;0.98;;;;;;;;;;5051260;28;20063;-78
2021/05/04 01:22:33;;;;;;;0.85;0.85;;;;;;;;;;5051500;28;20040;-78
2021/05/04 01:24:59;;;;;;;1.10;1.00;;;;;;;;;;5051855;28;20053;-78
2021/05/04 01:27:25;;;;;;;1.15;1.13;;;;;;;;;;5051393;28;20072;-78
2021/05/04 01:29:51;;;;;;;4.57;1.67;;;;;;;;;;5051188;28;20075;-78
2021/05/04 01:32:17;;;;;;;0.85;0.85;;;;;;;;;;5051106;28;20104;-78
2021/05/04 01:34:44;;;;;;;0.98;0.93;;;;;;;;;;5051702;28;20074;-78
2021/05/04 01:37:10;;;;;;;0.75;0.75;;;;;;;;;;5051217;28;20067;-78
2021/05/04 01:39:42;;;;;;;0.93;0.85;;;;;;;;;;5051088;28;20024;-78
2021/05/04 01:42:09;;;;;;;1.27;1.05;;;;;;;;;;5050600;28;20029;-78
2021/05/04 01:44:35;;;;;;;0.90;0.82;;;;;;;;;;5051386;28;20029;-78
2021/05/04 01:47:01;;;;;;;0.80;0.80;;;;;;;;;;5051272;28;20025;-78
2021/05/04 01:49:27;;;;;;;1.17;1.08;;;;;;;;;;5050601;28;20149;-78
2021/05/04 01:51:56;;;;;;;2.67;1.52;;;;;;;;;;5051290;28;20025;-79
2021/05/04 01:54:25;;;;;;;0.70;0.70;;;;;;;;;;5050857;28;20025;-78
2021/05/04 01:56:52;;;;;;;1.25;1.15;;;;;;;;;;5050917;28;20517;-78
2021/05/04 01:59:18;;;;;;;0.65;0.60;;;;;;;;;;5050788;28;20036;-78
2021/05/04 02:01:45;;;;;;;1.17;1.05;;;;;;;;;;5051063;28;20036;-78
2021/05/04 02:04:11;;;;;;;1.27;1.10;;;;;;;;;;5050882;28;20044;-78
2021/05/04 02:06:37;;;;;;;1.20;0.70;;;;;;;;;;5032926;28;20031;-78
2021/05/04 02:09:04;;;;;;;0.90;0.88;;;;;;;;;;5051157;28;20036;-78
2021/05/04 02:11:30;;;;;;;1.08;0.75;;;;;;;;;;5050457;28;20494;-78
2021/05/04 02:13:56;;;;;;;0.95;0.95;;;;;;;;;;5050746;28;20025;-78
2021/05/04 02:16:22;;;;;;;0.80;0.80;;;;;;;;;;5050580;28;20600;-78
2021/05/04 02:18:48;;;;;;;0.85;0.85;;;;;;;;;;5050966;28;20138;-78
2021/05/04 02:21:16;;;;;;;1.70;1.27;;;;;;;;;;5049932;28;20032;-78
2021/05/04 02:23:42;;;;;;;1.55;0.82;;;;;;;;;;5050369;28;20434;-79
2021/05/04 02:26:11;;;;;;;1.08;0.80;;;;;;;;;;5050845;28;20059;-78
2021/05/04 02:28:37;;;;;;;1.15;1.05;;;;;;;;;;5050941;28;20045;-78
2021/05/04 02:31:03;;;;;;;2.03;1.30;;;;;;;;;;5050487;28;20472;-79
2021/05/04 02:33:29;;;;;;;2.45;0.68;;;;;;;;;;5050327;28;20029;-79
2021/05/04 02:35:56;;;;;;;1.33;0.73;;;;;;;;;;5050460;28;20439;-79
2021/05/04 02:38:22;;;;;;;0.80;0.80;;;;;;;;;;5050469;28;20483;-78
2021/05/04 02:40:48;;;;;;;0.95;0.95;;;;;;;;;;5050610;28;20036;-79
2021/05/04 02:43:14;;;;;;;0.95;0.95;;;;;;;;;;5050188;28;20098;-78
2021/05/04 02:45:40;;;;;;;1.15;1.02;;;;;;;;;;5050827;28;20067;-79
2021/05/04 02:48:07;;;;;;;0.75;0.70;;;;;;;;;;5050323;28;20550;-78
2021/05/04 02:50:33;;;;;;;0.98;0.88;;;;;;;;;;5050288;28;20029;-78
2021/05/04 02:52:59;;;;;;;1.40;0.95;;;;;;;;;;5050363;28;20040;-79
2021/05/04 02:55:25;;;;;;;1.15;1.05;;;;;;;;;;5050334;28;20029;-78
2021/05/04 02:57:51;;;;;;;0.93;0.93;;;;;;;;;;5050188;28;20053;-78
2021/05/04 03:00:20;;;;;;;0.98;0.95;;;;;;;;;;5052667;28;20029;-78
2021/05/04 03:02:46;;;;;;;0.93;0.90;;;;;;;;;;5054339;28;20029;-78
2021/05/04 03:05:12;;;;;;;0.52;0.52;;;;;;;;;;5053853;28;20071;-78
2021/05/04 03:07:38;;;;;;;1.48;0.88;;;;;;;;;;5054332;28;20021;-78
2021/05/04 03:10:08;;;;;;;0.95;0.90;;;;;;;;;;5053853;28;20086;-78
2021/05/04 03:12:34;;;;;;;1.70;1.05;;;;;;;;;;5054077;28;20078;-78
2021/05/04 03:15:00;;;;;;;0.82;0.82;;;;;;;;;;5054387;28;20029;-78
2021/05/04 03:17:26;;;;;;;0.82;0.82;;;;;;;;;;5053698;28;20064;-78
2021/05/04 03:19:52;;;;;;;0.70;0.70;;;;;;;;;;5036111;28;20372;-79
2021/05/04 03:22:19;;;;;;;0.60;0.60;;;;;;;;;;5053406;28;20032;-78
2021/05/04 03:24:45;;;;;;;1.25;1.15;;;;;;;;;;5035920;28;20029;-78
2021/05/04 03:27:11;;;;;;;0.88;0.88;;;;;;;;;;5053729;28;20051;-78
2021/05/04 03:29:37;;;;;;;0.65;0.65;;;;;;;;;;5053781;28;20021;-79
2021/05/04 03:32:03;;;;;;;1.48;1.38;;;;;;;;;;5053806;28;20032;-78
2021/05/04 03:34:29;;;;;;;1.70;1.38;;;;;;;;;;5053293;28;20036;-78
2021/05/04 03:36:55;;;;;;;0.68;0.68;;;;;;;;;;5053645;28;20056;-79
2021/05/04 03:39:21;;;;;;;1.50;1.23;;;;;;;;;;5053325;28;20036;-78
2021/05/04 03:41:47;;;;;;;0.60;0.52;;;;;;;;;;5035839;28;20025;-78
2021/05/04 03:44:13;;;;;;;0.80;0.80;;;;;;;;;;5052911;28;20033;-78
2021/05/04 03:46:39;;;;;;;0.60;0.60;;;;;;;;;;5053946;28;20099;-78
2021/05/04 03:49:05;;;;;;;0.95;0.80;;;;;;;;;;5053266;28;20036;-78
2021/05/04 03:51:31;;;;;;;1.00;0.93;;;;;;;;;;5053441;28;20108;-78
2021/05/04 03:53:58;;;;;;;3.70;1.15;;;;;;;;;;5053429;28;20451;-78
2021/05/04 03:56:24;;;;;;;0.82;0.82;;;;;;;;;;5053408;28;20029;-78
2021/05/04 03:58:50;;;;;;;1.02;0.85;;;;;;;;;;5053347;28;20051;-78
2021/05/04 04:01:16;;;;;;;1.10;1.00;;;;;;;;;;5052754;28;20463;-79
2021/05/04 04:03:42;;;;;;;1.55;1.05;;;;;;;;;;5053290;28;20029;-78
2021/05/04 04:06:08;;;;;;;0.93;0.77;;;;;;;;;;5052863;28;20086;-78
2021/05/04 04:08:34;;;;;;;1.27;1.08;;;;;;;;;;5053195;28;20029;-78
2021/05/04 04:11:00;;;;;;;2.38;1.02;;;;;;;;;;5053077;28;20090;-78
2021/05/04 04:13:26;;;;;;;0.75;0.75;;;;;;;;;;5052587;28;20040;-78
2021/05/04 04:15:52;;;;;;;0.70;0.70;;;;;;;;;;5052922;28;20120;-78
2021/05/04 04:18:18;;;;;;;0.90;0.90;;;;;;;;;;5052979;28;20032;-78
2021/05/04 04:20:44;;;;;;;1.63;1.05;;;;;;;;;;5052659;28;20080;-79
2021/05/04 04:23:10;;;;;;;4.68;0.82;;;;;;;;;;5052395;28;20037;-78
2021/05/04 04:25:36;;;;;;;0.60;0.60;;;;;;;;;;5052704;28;20471;-78
2021/05/04 04:28:02;;;;;;;1.55;1.20;;;;;;;;;;5053102;28;20459;-78
2021/05/04 04:30:29;;;;;;;2.13;0.82;;;;;;;;;;5034283;28;20601;-78
2021/05/04 04:32:55;;;;;;;1.23;1.13;;;;;;;;;;5052746;28;20406;-78
2021/05/04 04:35:21;;;;;;;1.05;1.00;;;;;;;;;;5051982;28;20087;-78
2021/05/04 04:37:47;;;;;;;0.85;0.82;;;;;;;;;;5052440;28;20036;-78
2021/05/04 04:40:13;;;;;;;1.05;1.02;;;;;;;;;;5052383;28;20453;-78
2021/05/04 04:42:39;;;;;;;1.20;0.80;;;;;;;;;;5052435;28;20515;-79
2021/05/04 04:45:06;;;;;;;2.13;0.88;;;;;;;;;;5052664;28;20037;-79
2021/05/04 04:47:32;;;;;;;0.68;0.68;;;;;;;;;;5052342;28;20033;-78
2021/05/04 04:49:58;;;;;;;1.75;0.85;;;;;;;;;;5052341;28;20033;-78
2021/05/04 04:52:24;;;;;;;1.52;1.42;;;;;;;;;;5052227;28;20539;-78
2021/05/04 04:54:50;;;;;;;0.75;0.75;;;;;;;;;;5052443;28;20029;-78
2021/05/04 04:57:16;;;;;;;1.60;0.93;;;;;;;;;;5051633;28;20508;-78
2021/05/04 04:59:42;;;;;;;1.80;1.05;;;;;;;;;;5052275;28;20460;-78
2021/05/04 05:02:08;;;;;;;1.05;0.98;;;;;;;;;;5051779;28;20504;-78
2021/05/04 05:04:34;;;;;;;1.33;0.93;;;;;;;;;;5051969;28;20017;-78
2021/05/04 05:07:05;;;;;;;1.02;0.95;;;;;;;;;;5051866;28;20063;-79
2021/05/04 05:09:32;;;;;;;0.80;0.80;;;;;;;;;;5051837;28;20029;-79
2021/05/04 05:11:58;;;;;;;0.70;0.70;;;;;;;;;;5052189;28;20116;-79
2021/05/04 05:14:24;;;;;;;1.08;0.90;;;;;;;;;;5051674;28;20435;-78
2021/05/04 05:16:50;;;;;;;0.77;0.77;;;;;;;;;;5051983;28;20029;-78
2021/05/04 05:19:16;;;;;;;0.68;0.68;;;;;;;;;;5051590;28;20375;-78
2021/05/04 05:21:42;;;;;;;0.85;0.70;;;;;;;;;;5051395;28;20045;-78
2021/05/04 05:24:09;;;;;;;1.15;0.98;;;;;;;;;;5051511;28;20155;-78
2021/05/04 05:26:35;;;;;;;0.95;0.95;;;;;;;;;;5051513;28;20029;-78
2021/05/04 05:29:02;;;;;;;0.90;0.90;;;;;;;;;;5051657;28;20477;-78
2021/05/04 05:31:31;;;;;;;0.75;0.73;;;;;;;;;;5051145;28;20416;-78
2021/05/04 05:33:57;;;;;;;2.58;0.80;;;;;;;;;;5051678;28;20509;-78
2021/05/04 05:36:23;;;;;;;0.60;0.60;;;;;;;;;;5050810;28;20032;-78
2021/05/04 05:38:49;;;;;;;0.43;0.43;;;;;;;;;;5051472;28;20547;-78
2021/05/04 05:41:15;;;;;;;0.88;0.88;;;;;;;;;;5051020;28;20410;-78
2021/05/04 05:43:42;;;;;;;0.60;0.50;;;;;;;;;;5051061;28;20029;-78
2021/05/04 05:46:08;;;;;;;0.80;0.80;;;;;;;;;;5051247;28;20430;-79
2021/05/04 05:48:34;;;;;;;1.50;0.98;;;;;;;;;;5048660;28;20140;-78
2021/05/04 05:51:00;;;;;;;1.77;1.35;;;;;;;;;;5050883;28;20044;-79
2021/05/04 05:53:26;;;;;;;1.30;1.20;;;;;;;;;;5045084;28;20056;-79
2021/05/04 05:55:52;;;;;;;1.80;1.00;;;;;;;;;;5045417;28;20033;-78
2021/05/04 05:58:18;;;;;;;0.75;0.68;;;;;;;;;;5048867;28;20515;-78
2021/05/04 06:00:44;;;;;;;3.53;1.08;;;;;;;;;;5049321;28;20554;-79
2021/05/04 06:03:10;;;;;;;3.85;0.90;;;;;;;;;;5049685;28;20116;-77
2021/05/04 06:05:36;;;;;;;3.28;1.00;;;;;;;;;;5047861;28;20036;-79
2021/05/04 06:08:03;;;;;;;1.88;1.63;;;;;;;;;;5048669;28;20033;-79
2021/05/04 06:10:29;;;;;;;0.75;0.73;;;;;;;;;;5048507;28;20455;-78
2021/05/04 06:13:02;;;;;;;0.75;0.75;;;;;;;;;;5049582;28;20025;-78
2021/05/04 06:15:28;;;;;;;1.20;1.10;;;;;;;;;;5044879;28;20091;-78
2021/05/04 06:17:54;;;;;;;1.45;1.30;;;;;;;;;;5049038;28;20029;-79
2021/05/04 06:20:21;;;;;;;3.15;1.48;;;;;;;;;;5044878;28;20472;-78
2021/05/04 06:22:47;;;;;;;2.97;1.40;;;;;;;;;;5050196;28;20099;-79
2021/05/04 06:25:13;;;;;;;2.92;1.10;;;;;;;;;;5048711;28;20036;-78
2021/05/04 06:27:39;;;;;;;2.50;1.15;;;;;;;;;;5046584;28;20018;-78
2021/05/04 06:30:07;;;;;;;3.55;1.90;;;;;;;;;;5044053;28;20588;-78
2021/05/04 06:32:33;;;;;;;4.28;2.92;;;;;;;;;;5042665;28;20063;-79
2021/05/04 06:34:59;;;;;;;3.42;1.75;;;;;;;;;;5054108;28;20040;-77
2021/05/04 06:37:25;;;;;;;2.03;1.83;;;;;;;;;;5051863;28;20047;-79
2021/05/04 06:39:52;;;;;;;2.72;2.10;;;;;;;;;;5053521;28;20017;-81
2021/05/04 06:42:18;;;;;;;2.13;1.95;;;;;;;;;;5043753;28;20021;-84
2021/05/04 06:44:44;;;;;;;8.43;2.67;;;;;;;;;;5045758;28;20035;-83
2021/05/04 06:47:10;;;;;;;3.72;1.98;;;;;;;;;;5051885;28;20025;-82
2021/05/04 06:49:37;;;;;;;3.30;1.75;;;;;;;;;;5055906;28;20096;-80
2021/05/04 06:52:03;;;;;;;2.08;1.88;;;;;;;;;;5056956;28;20464;-80
2021/05/04 06:54:29;;;;;;;2.10;1.95;;;;;;;;;;5049564;28;20325;-83
2021/05/04 06:56:55;;;;;;;4.70;2.15;;;;;;;;;;5044125;28;20114;-80
2021/05/04 06:59:21;;;;;;;3.80;1.90;;;;;;;;;;5040562;28;20376;-80
2021/05/04 07:01:47;;;;;;;1.65;1.55;;;;;;;;;;5045690;28;20037;-82
2021/05/04 07:04:14;;;;;;;3.20;1.85;;;;;;;;;;5026197;28;20068;-81
2021/05/04 07:06:43;;;;;;;3.05;1.95;;;;;;;;;;5046247;28;20471;-81
2021/05/04 07:09:09;;;;;;;1.95;1.70;;;;;;;;;;5028715;28;20032;-80
2021/05/04 07:11:35;;;;;;;3.40;1.75;;;;;;;;;;5045854;28;20149;-80
2021/05/04 07:14:02;;;;;;;3.35;2.20;;;;;;;;;;5045692;28;20112;-81
2021/05/04 07:16:29;;;;;;;3.83;2.05;;;;;;;;;;5046589;28;20051;-81
2021/05/04 07:18:55;;;;;;;2.60;1.35;;;;;;;;;;5045966;28;20029;-81
2021/05/04 07:21:21;;;;;;;1.95;1.75;;;;;;;;;;5046022;28;20110;-81
2021/05/04 07:23:48;;;;;;;5.72;1.90;;;;;;;;;;5047813;28;20624;-80
2021/05/04 07:26:14;;;;;;;2.67;1.83;;;;;;;;;;5046870;28;20047;-80
2021/05/04 07:28:40;;;;;;;3.47;2.13;;;;;;;;;;5010089;28;20044;-81
2021/05/04 07:31:06;;;;;;;4.75;2.10;;;;;;;;;;5044820;28;20025;-81
2021/05/04 07:33:33;;;;;;;3.05;1.95;;;;;;;;;;5045555;28;20407;-82
2021/05/04 07:35:59;;;;;;;5.35;1.98;;;;;;;;;;5044169;28;20036;-80
2021/05/04 07:38:25;;;;;;;1.77;1.67;;;;;;;;;;5044012;28;20037;-80
2021/05/04 07:40:51;;;;;;;3.75;2.00;;;;;;;;;;5046751;28;20041;-78
2021/05/04 07:43:17;;;;;;;4.85;2.22;;;;;;;;;;5046340;28;20045;-78
2021/05/04 07:45:43;;;;;;;2.67;1.80;;;;;;;;;;5046770;28;20112;-78
2021/05/04 07:48:11;;;;;;;3.50;2.28;;;;;;;;;;5045233;28;20040;-78
2021/05/04 07:50:38;;;;;;;2.40;1.83;;;;;;;;;;5045694;28;20013;-78
2021/05/04 07:53:04;;;;;;;2.83;1.67;;;;;;;;;;5048026;28;20048;-78
2021/05/04 07:55:30;;;;;;;3.22;2.10;;;;;;;;;;5046776;28;20425;-79
2021/05/04 07:57:56;;;;;;;3.75;2.08;;;;;;;;;;5046154;28;20052;-78
2021/05/04 08:00:23;;;;;;;2.13;1.90;;;;;;;;;;5043292;28;20043;-79
2021/05/04 08:02:49;;;;;;;1.70;1.60;;;;;;;;;;5046993;28;20053;-79
2021/05/04 08:05:15;;;;;;;2.53;1.83;;;;;;;;;;5045220;28;20033;-79
2021/05/04 08:07:42;;;;;;;4.03;1.65;;;;;;;;;;5046200;28;20045;-78
2021/05/04 08:10:08;;;;;;;4.95;1.80;;;;;;;;;;5045056;28;20064;-78
2021/05/04 08:12:35;;;;;;;2.30;1.45;;;;;;;;;;5047118;28;20195;-79
2021/05/04 08:15:03;;;;;;;3.25;2.33;;;;;;;;;;5046469;28;20028;-77
2021/05/04 08:17:31;;;;;;;3.72;1.88;;;;;;;;;;5045504;28;20101;-78
2021/05/04 08:20:00;;;;;;;4.35;2.20;;;;;;;;;;5045596;28;20102;-78
2021/05/04 08:22:26;;;;;;;2.53;1.40;;;;;;;;;;5046340;28;20432;-79
2021/05/04 08:24:52;;;;;;;2.70;1.75;;;;;;;;;;5046661;28;20438;-78
2021/05/04 08:27:18;;;;;;;4.05;1.35;;;;;;;;;;5045340;28;20476;-79
2021/05/04 08:29:44;;;;;;;2.05;1.50;;;;;;;;;;5043239;28;20029;-78
2021/05/04 08:32:10;;;;;;;2.40;2.05;;;;;;;;;;5045140;28;20025;-78
2021/05/04 08:34:37;;;;;;;3.05;1.73;;;;;;;;;;5045244;28;20557;-78
2021/05/04 08:37:04;;;;;;;11.70;3.03;;;;;;;;;;5045765;28;20051;-78
2021/05/04 08:39:30;;;;;;;1.63;1.50;;;;;;;;;;5044037;28;20036;-79
2021/05/04 08:41:57;;;;;;;3.63;2.53;;;;;;;;;;5045936;28;20029;-78
2021/05/04 08:44:25;;;;;;;2.05;1.80;;;;;;;;;;5044688;28;20055;-79
2021/05/04 08:46:52;;;;;;;5.93;1.80;;;;;;;;;;5045941;28;20025;-80
2021/05/04 08:49:20;;;;;;;2.67;2.47;;;;;;;;;;5041628;28;20075;-79
2021/05/04 08:51:47;;;;;;;5.63;1.85;;;;;;;;;;5043487;28;20483;-79
2021/05/04 08:54:13;;;;;;;3.20;1.65;;;;;;;;;;5029218;28;20403;-79
2021/05/04 08:56:40;;;;;;;4.45;2.60;;;;;;;;;;5043812;28;20538;-80
2021/05/04 08:59:07;;;;;;;2.60;2.20;;;;;;;;;;5036579;28;20025;-78
2021/05/04 09:01:33;;;;;;;3.40;1.35;;;;;;;;;;5043545;28;20029;-78
2021/05/04 09:04:11;;;;;;;3.95;2.70;;;;;;;;;;5046456;28;20655;-80
2021/05/04 09:06:40;;;;;;;2.67;2.30;;;;;;;;;;5047589;28;20025;-80
2021/05/04 09:09:14;;;;;;;2.22;1.88;;;;;;;;;;5048668;28;20013;-80
2021/05/04 09:17:26;;;;;;;1.92;1.65;;;;;;;;;;5049087;28;20146;-80
2021/05/04 09:20:30;;;;;;;1.50;1.40;;;;;;;;;;5047073;28;20029;-79
2021/05/04 09:23:06;;;;;;;1.42;1.25;;;;;;;;;;5048685;28;20040;-80
2021/05/04 09:25:36;;;;;;;2.75;1.75;;;;;;;;;;5048229;28;20384;-79
2021/05/04 09:28:04;;;;;;;2.83;1.85;;;;;;;;;;5048622;28;20535;-80
2021/05/04 09:30:31;;;;;;;4.15;2.17;;;;;;;;;;5049145;28;20037;-81
2021/05/04 09:32:57;;;;;;;2.25;1.50;;;;;;;;;;5049442;28;20077;-80
2021/05/04 09:35:32;;;;;;;5.07;2.45;;;;;;;;;;5048371;28;20037;-80
2021/05/04 09:38:18;;;;;;;5.05;2.17;;;;;;;;;;5048495;28;20493;-81
2021/05/04 09:40:45;;;;;;;5.95;1.90;;;;;;;;;;5030960;28;20086;-81
2021/05/04 09:43:14;;;;;;;4.05;2.05;;;;;;;;;;5047739;28;20036;-80
2021/05/04 09:45:48;;;;;;;4.75;1.52;;;;;;;;;;5048821;28;20041;-80
2021/05/04 09:48:24;;;;;;;3.80;1.40;;;;;;;;;;5042034;28;20028;-79
2021/05/04 09:50:53;;;;;;;2.30;2.10;;;;;;;;;;5043878;28;20021;-79
2021/05/04 09:56:10;;;;;;;2.55;1.50;;;;;;;;;;5036220;28;20392;-81
2021/05/04 09:58:37;;;;;;;2.03;1.48;;;;;;;;;;5044104;28;20045;-80
2021/05/04 10:01:05;;;;;;;2.47;2.08;;;;;;;;;;5043345;28;20127;-80
2021/05/04 10:03:31;;;;;;;4.03;1.92;;;;;;;;;;5042636;28;20047;-80
2021/05/04 10:06:01;;;;;;;5.45;2.22;;;;;;;;;;5043715;28;20535;-81
2021/05/04 10:08:28;;;;;;;2.15;2.05;;;;;;;;;;5044133;28;20527;-80
2021/05/04 10:10:55;;;;;;;4.60;2.08;;;;;;;;;;5044801;28;20033;-81
2021/05/04 10:13:23;;;;;;;6.20;3.13;;;;;;;;;;5041459;28;20029;-82
2021/05/04 10:15:50;;;;;;;2.17;2.08;;;;;;;;;;5042454;28;20561;-80
2021/05/04 10:18:16;;;;;;;4.03;2.38;;;;;;;;;;5043795;28;20035;-80
2021/05/04 10:20:42;;;;;;;6.03;2.50;;;;;;;;;;5025637;28;20036;-80
2021/05/04 10:23:12;;;;;;;4.07;2.28;;;;;;;;;;5044031;28;20045;-79
2021/05/04 10:25:39;;;;;;;6.43;2.05;;;;;;;;;;5042754;28;20046;-80
2021/05/04 10:28:06;;;;;;;2.33;1.95;;;;;;;;;;5044688;28;20029;-80
2021/05/04 10:30:33;;;;;;;2.78;1.60;;;;;;;;;;5040776;28;20040;-81
2021/05/04 10:33:02;;;;;;;2.33;1.48;;;;;;;;;;5037526;28;20672;-80
2021/05/04 10:35:31;;;;;;;7.35;1.73;;;;;;;;;;5032474;28;20052;-81
2021/05/04 10:38:03;;;;;;;2.15;1.30;;;;;;;;;;5043839;28;20084;-81
2021/05/04 10:40:34;;;;;;;5.43;1.92;;;;;;;;;;5043115;28;20683;-80
2021/05/04 10:43:01;;;;;;;3.95;1.52;;;;;;;;;;5044409;28;20082;-81
2021/05/04 10:45:40;;;;;;;3.35;2.97;;;;;;;;;;5042186;28;20047;-81
2021/05/04 10:48:06;;;;;;;1.50;1.40;;;;;;;;;;5043803;28;20040;-80
2021/05/04 10:50:45;;;;;;;2.50;1.70;;;;;;;;;;5043451;28;20513;-80
2021/05/04 10:53:11;;;;;;;3.58;2.03;;;;;;;;;;5045479;28;20052;-80
2021/05/04 10:55:52;;;;;;;2.53;2.33;;;;;;;;;;5042422;28;20108;-80
2021/05/04 10:58:19;;;;;;;2.80;1.45;;;;;;;;;;5041713;28;20081;-80
2021/05/04 11:01:04;;;;;;;1.90;1.55;;;;;;;;;;5044353;28;20041;-80
2021/05/04 11:03:34;;;;;;;2.13;1.73;;;;;;;;;;5043244;28;20036;-80
2021/05/04 11:06:09;;;;;;;1.95;1.30;;;;;;;;;;5043600;28;20036;-81
2021/05/04 11:08:42;;;;;;;3.85;1.98;;;;;;;;;;5044360;28;20072;-80
2021/05/04 11:11:27;;;;;;;3.95;1.80;;;;;;;;;;5044612;28;20040;-80
2021/05/04 11:14:00;;;;;;;1.90;1.52;;;;;;;;;;5042545;28;20555;-80
2021/05/04 11:16:34;;;;;;;2.58;1.60;;;;;;;;;;5043882;28;20033;-80
2021/05/04 11:19:08;;;;;;;3.05;1.65;;;;;;;;;;5044699;28;20090;-80
2021/05/04 11:21:41;;;;;;;1.77;1.65;;;;;;;;;;5047282;28;20040;-80
2021/05/04 11:24:15;;;;;;;3.38;1.58;;;;;;;;;;5046670;28;20426;-79
2021/05/04 11:26:47;;;;;;;1.40;1.30;;;;;;;;;;5048497;28;20101;-81
2021/05/04 11:29:14;;;;;;;2.03;1.52;;;;;;;;;;5046056;28;20041;-82
2021/05/04 11:31:41;;;;;;;2.30;1.52;;;;;;;;;;5046488;28;20025;-82
2021/05/04 11:34:26;;;;;;;5.63;1.65;;;;;;;;;;5042007;28;20041;-82
2021/05/04 11:36:55;;;;;;;2.00;1.77;;;;;;;;;;5047191;28;20178;-83
2021/05/04 11:39:21;;;;;;;2.80;1.92;;;;;;;;;;5044631;28;20116;-83
2021/05/04 11:42:00;;;;;;;1.92;1.58;;;;;;;;;;5048041;28;20033;-81
2021/05/04 11:44:34;;;;;;;3.90;1.83;;;;;;;;;;5042686;28;20055;-81
2021/05/04 11:47:20;;;;;;;2.00;1.83;;;;;;;;;;5049286;28;20037;-82
2021/05/04 11:49:46;;;;;;;1.70;1.60;;;;;;;;;;5046521;28;20044;-82
2021/05/04 11:52:14;;;;;;;1.92;1.48;;;;;;;;;;5027154;28;20868;-82
2021/05/04 11:54:40;;;;;;;30.73;2.67;;;;;;;;;;5046584;28;20047;-82
2021/05/04 11:57:06;;;;;;;4.10;1.48;;;;;;;;;;5046533;28;20052;-84
2021/05/04 11:59:33;;;;;;;2.55;1.80;;;;;;;;;;5036105;28;20151;-81
2021/05/04 12:01:59;;;;;;;3.78;2.17;;;;;;;;;;5044297;28;20028;-81
2021/05/04 12:04:43;;;;;;;2.33;1.77;;;;;;;;;;5043346;28;20492;-81
2021/05/04 12:07:10;;;;;;;2.55;1.52;;;;;;;;;;5045512;28;20041;-81
2021/05/04 12:09:36;;;;;;;3.15;1.80;;;;;;;;;;5045575;28;20025;-81
2021/05/04 12:12:14;;;;;;;2.42;1.98;;;;;;;;;;5046696;28;20029;-81
2021/05/04 12:15:17;;;;;;;1.80;1.38;;;;;;;;;;5043907;28;20045;-81
2021/05/04 12:17:44;;;;;;;3.30;1.50;;;;;;;;;;4989029;28;20064;-80
2021/05/04 12:20:17;;;;;;;2.95;1.73;;;;;;;;;;5035707;28;20819;-80
2021/05/04 12:22:47;;;;;;;3.83;1.80;;;;;;;;;;5047978;28;20040;-84
2021/05/04 12:25:15;;;;;;;2.03;1.33;;;;;;;;;;5043228;28;20134;-80
2021/05/04 12:27:41;;;;;;;6.97;2.70;;;;;;;;;;5046100;28;20438;-81
2021/05/04 12:30:08;;;;;;;5.00;2.15;;;;;;;;;;5045407;28;20639;-80
2021/05/04 12:32:34;;;;;;;6.50;2.42;;;;;;;;;;5043570;28;20041;-81
2021/05/04 12:35:38;;;;;;;2.35;2.13;;;;;;;;;;5025267;28;20045;-81
2021/05/04 12:38:09;;;;;;;3.45;2.05;;;;;;;;;;5026583;28;20041;-80
2021/05/04 12:40:38;;;;;;;4.05;2.45;;;;;;;;;;5027889;28;20033;-82
2021/05/04 12:43:16;;;;;;;3.25;2.00;;;;;;;;;;5045707;28;20045;-81
2021/05/04 12:46:02;;;;;;;1.63;1.52;;;;;;;;;;5043602;28;20033;-82
2021/05/04 12:48:28;;;;;;;2.20;2.00;;;;;;;;;;5043875;28;20094;-82
2021/05/04 12:50:59;;;;;;;1.95;1.75;;;;;;;;;;5044543;28;20064;-81
2021/05/04 12:53:36;;;;;;;4.13;2.33;;;;;;;;;;5026487;28;20037;-81
2021/05/04 12:56:14;;;;;;;4.18;1.65;;;;;;;;;;5043229;28;20032;-82
2021/05/04 12:58:53;;;;;;;4.57;2.25;;;;;;;;;;5045486;28;20056;-81
2021/05/04 13:01:19;;;;;;;4.18;2.22;;;;;;;;;;5044847;28;20036;-80
2021/05/04 13:03:52;;;;;;;1.77;1.67;;;;;;;;;;5021121;28;20048;-81
2021/05/04 13:06:28;;;;;;;4.68;2.03;;;;;;;;;;5038651;28;20028;-81
2021/05/04 13:09:10;;;;;;;6.63;2.85;;;;;;;;;;5039410;28;20032;-81
2021/05/04 13:11:37;;;;;;;2.38;1.90;;;;;;;;;;5039730;28;20041;-81
2021/05/04 13:14:28;;;;;;;2.95;1.70;;;;;;;;;;5037382;28;20071;-81
2021/05/04 13:30:53;;;;;;;2.95;2.00;;;;;;;;;;5040553;28;20142;-81
2021/05/04 13:33:00;;;;;;;2.58;2.38;;;;;;;;;;5031377;28;20572;-81
2021/05/04 13:35:33;;;;;;;1.92;1.60;;;;;;;;;;5033527;28;20025;-80
2021/05/04 13:38:08;;;;;;;2.42;2.22;;;;;;;;;;5039027;28;20032;-83
2021/05/04 13:48:39;;;;;;;5.00;2.00;;;;;;;;;;5039451;28;20090;-81
2021/05/04 13:51:05;;;;;;;2.53;1.90;;;;;;;;;;5037735;28;20035;-80
2021/05/04 13:53:31;;;;;;;4.65;2.33;;;;;;;;;;5037760;28;20479;-82
2021/05/04 13:55:58;;;;;;;4.28;2.17;;;;;;;;;;5030472;28;20111;-81
2021/05/04 13:58:28;;;;;;;2.35;1.60;;;;;;;;;;5036443;28;20058;-80
2021/05/04 14:01:11;;;;;;;2.13;1.90;;;;;;;;;;5035554;28;20124;-80
2021/05/04 14:06:27;;;;;;;4.75;2.55;;;;;;;;;;5040190;28;20175;-81
2021/05/04 14:09:27;;;;;;;2.30;1.83;;;;;;;;;;5042170;28;20025;-81
2021/05/04 14:27:39;;;;;;;3.65;3.03;;;;;;;;;;5045610;28;20033;-82
2021/05/04 14:30:06;;;;;;;2.45;1.92;;;;;;;;;;5047702;28;20043;-81
2021/05/04 14:32:32;;;;;;;5.00;2.83;;;;;;;;;;5046707;28;20495;-81
2021/05/04 14:35:01;;;;;;;4.70;2.65;;;;;;;;;;5048401;28;20096;-81
2021/05/04 14:40:16;;;;;;;4.90;3.30;;;;;;;;;;5040758;28;20044;-82
2021/05/04 14:58:34;;;;;;;10.30;2.33;;;;;;;;;;5043420;28;20442;-81
2021/05/04 15:03:45;;;;;;;4.63;2.88;;;;;;;;;;5044744;28;20051;-80
2021/05/04 15:06:11;;;;;;;3.10;2.75;;;;;;;;;;5043187;28;20040;-81
2021/05/04 15:08:40;;;;;;;3.85;2.50;;;;;;;;;;5027265;28;20482;-80
2021/05/04 15:11:08;;;;;;;7.72;2.90;;;;;;;;;;5044317;28;20108;-81
2021/05/04 15:13:36;;;;;;;4.32;2.45;;;;;;;;;;5046362;28;20037;-81
2021/05/04 15:23:49;;;;;;;9.52;4.30;;;;;;;;;;5045359;28;20111;-79
2021/05/04 15:26:15;;;;;;;12.18;3.70;;;;;;;;;;5045459;28;20077;-78
2021/05/04 15:28:41;;;;;;;9.48;3.20;;;;;;;;;;5047151;28;20037;-82
2021/05/04 15:31:07;;;;;;;9.98;3.75;;;;;;;;;;5047132;28;20057;-80
2021/05/04 15:33:39;;;;;;;10.27;3.00;;;;;;;;;;5045817;28;20086;-79
2021/05/04 15:36:05;;;;;;;4.03;2.55;;;;;;;;;;5045401;28;20104;-80
2021/05/04 15:38:32;;;;;;;4.20;2.50;;;;;;;;;;5044513;28;20033;-81
2021/05/04 15:40:58;;;;;;;6.60;2.63;;;;;;;;;;5046204;28;20033;-79
2021/05/04 15:43:24;;;;;;;2.85;1.98;;;;;;;;;;5045322;28;20045;-79
2021/05/04 15:48:22;;;;;;;4.95;3.60;;;;;;;;;;5037142;28;20067;-79
2021/05/04 15:50:56;;;;;;;3.83;3.05;;;;;;;;;;5047045;28;20020;-80
2021/05/04 16:06:51;;;;;;;10.68;3.15;;;;;;;;;;5052576;28;20032;-78
2021/05/04 16:09:19;;;;;;;6.00;3.00;;;;;;;;;;5034736;28;20390;-78
2021/05/04 16:11:45;;;;;;;3.88;2.47;;;;;;;;;;5050560;28;20376;-78
2021/05/04 16:14:11;;;;;;;8.13;3.17;;;;;;;;;;5049982;28;20036;-77
2021/05/04 16:16:38;;;;;;;39.22;7.03;;;;;;;;;;5050756;28;20024;-78
2021/05/04 16:21:40;;;;;;;14.43;5.00;;;;;;;;;;5048043;28;20037;-78
2021/05/04 16:31:46;;;;;;;10.00;3.88;;;;;;;;;;5072386;28;20106;-79
2021/05/04 16:34:12;;;;;;;6.70;2.92;;;;;;;;;;5069920;28;20020;-78